Time;durP1;ratioP1;P1;durP2;ratioP2;P2;SDS_P1;SDS_P2;PMS_P1;PMS_P2;Temp;Humidity;BMP_temperature;BMP_pressure;BME280_temperature;BME280_humidity;BME280_pressure;Samples;Min_cycle;Max_cycle;Signal;HPM_P1;HPM_P2
2022/07/04 00:00:18;;;;;;;4.97;2.10;;;;;;;25.97;77.53;99700.00;6241939;23;20079;-75
2022/07/04 00:02:45;;;;;;;4.00;2.88;;;;;;;25.77;78.22;99698.75;6241328;23;20008;-76
2022/07/04 00:05:12;;;;;;;3.70;2.35;;;;;;;25.56;78.72;99695.63;6241558;23;20004;-75
2022/07/04 00:07:42;;;;;;;5.40;2.65;;;;;;;25.46;79.26;99689.94;6240872;23;20066;-74
2022/07/04 00:10:09;;;;;;;3.75;2.03;;;;;;;25.44;80.32;99681.28;6239839;23;20008;-76
2022/07/04 00:12:36;;;;;;;7.80;2.83;;;;;;;25.51;80.05;99690.06;6240892;23;20012;-76
2022/07/04 00:15:04;;;;;;;6.32;2.45;;;;;;;25.59;79.37;99694.31;6241199;23;20004;-76
2022/07/04 00:17:30;;;;;;;6.90;2.28;;;;;;;25.70;79.60;99693.47;6241384;23;20009;-75
2022/07/04 00:19:55;;;;;;;7.13;2.60;;;;;;;25.78;80.17;99693.13;6241228;23;20018;-76
2022/07/04 00:22:21;;;;;;;5.25;2.47;;;;;;;25.82;79.17;99709.66;6240775;23;20020;-75
2022/07/04 00:24:47;;;;;;;5.60;2.70;;;;;;;25.84;79.66;99702.97;6241125;23;20091;-76
2022/07/04 00:27:12;;;;;;;3.35;2.20;;;;;;;25.86;79.16;99700.84;6241394;23;20016;-76
2022/07/04 00:29:38;;;;;;;8.70;2.58;;;;;;;25.89;78.84;99694.97;6241073;23;20004;-76
2022/07/04 00:32:04;;;;;;;3.03;2.17;;;;;;;25.87;79.07;99690.84;6241131;23;20011;-76
2022/07/04 00:34:30;;;;;;;4.95;2.53;;;;;;;25.83;78.77;99700.50;6241380;23;20062;-75
2022/07/04 00:36:55;;;;;;;3.38;2.47;;;;;;;25.76;79.28;99699.81;6241082;23;20008;-76
2022/07/04 00:39:21;;;;;;;2.85;2.45;;;;;;;25.67;80.48;99697.50;6241509;23;20016;-76
2022/07/04 00:41:47;;;;;;;6.72;2.45;;;;;;;25.61;80.69;99693.03;6240377;23;20079;-75
2022/07/04 00:44:15;;;;;;;6.30;2.60;;;;;;;25.57;82.79;99686.44;6214020;23;20440;-75
2022/07/04 00:46:45;;;;;;;5.47;2.53;;;;;;;25.57;82.60;99678.31;6240881;23;20008;-75
2022/07/04 00:49:12;;;;;;;3.72;2.10;;;;;;;25.56;82.09;99674.00;6241543;23;20057;-75
2022/07/04 00:51:39;;;;;;;3.85;2.13;;;;;;;25.53;82.07;99670.91;6240459;23;20130;-76
2022/07/04 00:54:05;;;;;;;6.88;2.50;;;;;;;25.47;82.09;99669.97;6241271;23;20016;-75
2022/07/04 00:56:31;;;;;;;5.57;2.42;;;;;;;25.46;82.80;99667.50;6241065;23;20039;-76
2022/07/04 00:58:58;;;;;;;3.53;2.20;;;;;;;25.45;82.30;99663.97;6240615;23;20012;-76
2022/07/04 01:01:25;;;;;;;3.13;2.40;;;;;;;25.43;82.71;99666.13;6241085;23;20490;-76
2022/07/04 01:03:51;;;;;;;2.65;2.13;;;;;;;25.47;82.29;99663.75;6241147;23;20493;-76
2022/07/04 01:06:19;;;;;;;3.65;2.50;;;;;;;25.50;83.56;99669.53;6240776;23;20039;-76
2022/07/04 01:08:45;;;;;;;2.75;2.15;;;;;;;25.52;82.61;99661.97;6240761;23;20014;-75
2022/07/04 01:11:12;;;;;;;5.07;2.58;;;;;;;25.51;80.35;99667.59;6241210;23;20417;-75
2022/07/04 01:13:40;;;;;;;5.85;2.60;;;;;;;25.46;80.86;99668.31;6240289;23;20498;-76
2022/07/04 01:16:07;;;;;;;3.20;2.13;;;;;;;25.38;81.29;99671.41;6214231;23;20015;-75
2022/07/04 01:18:32;;;;;;;3.63;2.70;;;;;;;25.33;80.77;99673.97;6240756;23;20028;-76
2022/07/04 01:20:58;;;;;;;3.78;2.00;;;;;;;25.29;81.96;99675.50;6240894;23;20008;-74
2022/07/04 01:23:25;;;;;;;3.45;2.17;;;;;;;25.28;80.85;99671.16;6240453;23;20408;-77
2022/07/04 01:25:52;;;;;;;4.50;2.45;;;;;;;25.26;81.45;99662.47;6241048;23;20011;-75
2022/07/04 01:28:22;;;;;;;2.45;1.88;;;;;;;25.25;81.50;99669.75;6241104;23;20422;-76
2022/07/04 01:30:48;;;;;;;5.35;2.10;;;;;;;25.24;81.04;99664.59;6240469;23;20441;-77
2022/07/04 01:33:13;;;;;;;2.80;2.20;;;;;;;25.21;81.82;99665.88;6241334;23;20757;-76
2022/07/04 01:35:39;;;;;;;4.20;2.30;;;;;;;25.19;81.95;99672.56;6240754;23;20012;-76
2022/07/04 01:38:05;;;;;;;2.83;2.42;;;;;;;25.11;81.92;99675.63;6240791;23;20016;-75
2022/07/04 01:40:30;;;;;;;3.90;2.40;;;;;;;25.07;83.47;99669.88;6213891;23;20012;-75
2022/07/04 01:42:58;;;;;;;2.60;2.40;;;;;;;25.00;84.38;99673.72;6240855;23;20016;-76
2022/07/04 01:45:24;;;;;;;6.18;2.63;;;;;;;24.93;84.71;99657.66;6240787;23;20454;-76
2022/07/04 01:47:50;;;;;;;5.05;2.63;;;;;;;24.87;85.58;99670.16;6240630;23;20087;-76
2022/07/04 01:50:16;;;;;;;7.40;2.53;;;;;;;24.85;85.91;99666.91;6240964;23;20012;-76
2022/07/04 01:52:42;;;;;;;3.47;2.35;;;;;;;24.84;85.12;99676.03;6213641;23;20019;-76
2022/07/04 01:55:10;;;;;;;5.95;2.65;;;;;;;24.71;86.17;99673.53;6241106;23;20448;-76
2022/07/04 01:57:36;;;;;;;6.32;2.58;;;;;;;24.61;87.33;99677.88;6240696;23;20520;-75
2022/07/04 02:02:47;;;;;;;4.28;2.90;;;;;;;24.26;90.51;99677.75;6213634;23;20090;-77
2022/07/04 02:05:28;;;;;;;6.65;3.95;;;;;;;23.94;92.20;99688.69;6240509;23;20004;-76
2022/07/04 02:07:53;;;;;;;3.42;2.97;;;;;;;23.88;92.90;99681.50;6240246;23;20015;-76
2022/07/04 02:10:19;;;;;;;4.72;2.47;;;;;;;23.80;93.67;99678.31;6240998;23;20008;-76
2022/07/04 02:13:03;;;;;;;5.22;2.88;;;;;;;23.78;93.74;99686.63;6240394;23;20008;-75
2022/07/04 02:15:35;;;;;;;6.70;3.00;;;;;;;23.81;94.19;99680.75;6240694;23;20508;-76
2022/07/04 02:18:02;;;;;;;3.45;2.85;;;;;;;23.94;94.24;99685.16;6240772;23;20142;-76
2022/07/04 02:20:28;;;;;;;6.15;2.70;;;;;;;24.05;93.82;99687.94;6240267;23;20403;-76
2022/07/04 02:22:53;;;;;;;7.35;3.13;;;;;;;24.11;92.86;99698.84;6238522;23;20015;-76
2022/07/04 02:25:19;;;;;;;3.22;2.85;;;;;;;24.13;92.62;99699.47;6241278;23;20056;-76
2022/07/04 02:27:45;;;;;;;3.97;3.20;;;;;;;24.22;93.02;99704.31;6214124;23;20000;-75
2022/07/04 02:30:11;;;;;;;7.35;3.28;;;;;;;24.18;93.84;99713.94;6242833;23;20008;-74
2022/07/04 02:32:37;;;;;;;3.65;3.33;;;;;;;24.13;94.14;99721.03;6242022;23;20023;-74
2022/07/04 02:35:04;;;;;;;5.05;3.72;;;;;;;23.97;95.97;99717.91;6242919;23;20016;-77
2022/07/04 02:37:29;;;;;;;5.40;3.42;;;;;;;23.64;97.52;99728.22;6242470;23;20338;-75
2022/07/04 02:39:55;;;;;;;5.15;3.80;;;;;;;23.32;99.28;99723.94;6242689;23;20015;-75
2022/07/04 02:42:21;;;;;;;3.53;3.17;;;;;;;23.30;99.72;99709.88;6240148;23;20101;-75
2022/07/04 02:44:47;;;;;;;4.90;3.13;;;;;;;23.33;99.82;99704.06;6215594;23;20023;-75
2022/07/04 02:47:13;;;;;;;4.15;3.50;;;;;;;23.43;99.74;99707.06;6242608;23;20008;-75
2022/07/04 02:49:39;;;;;;;4.50;3.78;;;;;;;23.53;99.58;99702.00;6241938;23;20015;-75
2022/07/04 02:52:05;;;;;;;3.40;3.10;;;;;;;23.58;99.36;99719.16;6241829;23;20031;-75
2022/07/04 02:54:30;;;;;;;4.45;3.17;;;;;;;23.63;99.01;99715.78;6242363;23;20092;-76
2022/07/04 02:56:56;;;;;;;3.80;3.00;;;;;;;23.72;98.68;99711.75;6242544;23;20031;-76
2022/07/04 02:59:22;;;;;;;5.47;4.47;;;;;;;23.74;97.45;99711.53;6242587;23;20016;-76
2022/07/04 03:01:47;;;;;;;3.95;3.30;;;;;;;23.70;96.98;99711.16;6242220;23;20008;-77
2022/07/04 03:04:13;;;;;;;3.63;3.17;;;;;;;23.75;97.28;99708.59;6241736;23;20019;-76
2022/07/04 03:06:39;;;;;;;5.72;3.28;;;;;;;23.77;97.52;99711.91;6214360;23;20054;-76
2022/07/04 03:09:06;;;;;;;5.53;3.28;;;;;;;23.81;97.53;99712.28;6242203;23;20332;-75
2022/07/04 03:11:32;;;;;;;7.50;3.22;;;;;;;23.83;97.71;99708.31;6215392;23;20011;-76
2022/07/04 03:13:58;;;;;;;4.18;3.55;;;;;;;23.70;98.42;99710.31;6242135;23;20058;-75
2022/07/04 03:16:23;;;;;;;3.67;3.13;;;;;;;23.60;98.69;99716.25;6242338;23;20004;-75
2022/07/04 03:18:49;;;;;;;6.45;3.47;;;;;;;23.58;98.91;99711.06;6241488;23;20016;-75
2022/07/04 03:21:14;;;;;;;6.18;3.00;;;;;;;23.65;99.13;99708.31;6241933;23;20004;-76
2022/07/04 03:23:40;;;;;;;5.65;3.42;;;;;;;23.63;98.92;99705.00;6241647;23;20008;-76
2022/07/04 03:26:06;;;;;;;5.22;3.38;;;;;;;23.63;99.04;99694.22;6242238;23;20008;-75
2022/07/04 03:28:31;;;;;;;6.53;3.45;;;;;;;23.68;99.07;99691.69;6241645;23;20012;-75
2022/07/04 03:30:58;;;;;;;3.10;2.80;;;;;;;23.73;98.73;99699.94;6242334;23;20028;-77
2022/07/04 03:33:24;;;;;;;4.97;3.55;;;;;;;23.72;98.90;99706.38;6241983;23;20371;-78
2022/07/04 03:35:50;;;;;;;6.78;3.50;;;;;;;23.70;98.58;99716.53;6241093;23;20008;-77
2022/07/04 03:38:15;;;;;;;3.72;3.42;;;;;;;23.53;98.87;99720.88;6241567;23;20004;-76
2022/07/04 03:40:41;;;;;;;5.20;3.70;;;;;;;23.55;99.70;99718.78;6241279;23;20012;-77
2022/07/04 03:43:06;;;;;;;4.95;3.60;;;;;;;23.52;100.00;99720.03;6240876;23;20055;-77
2022/07/04 03:45:32;;;;;;;5.03;4.22;;;;;;;23.47;100.00;99727.13;6241730;23;20016;-77
2022/07/04 03:47:58;;;;;;;5.10;3.20;;;;;;;23.42;100.00;99735.03;6242305;23;20047;-75
2022/07/04 03:50:24;;;;;;;4.82;3.67;;;;;;;23.40;100.00;99727.16;6214548;23;20012;-76
2022/07/04 03:52:51;;;;;;;5.00;3.88;;;;;;;23.43;100.00;99720.53;6241113;23;20087;-76
2022/07/04 03:55:16;;;;;;;5.68;3.97;;;;;;;23.30;100.00;99715.25;6241829;23;20341;-77
2022/07/04 03:57:42;;;;;;;8.18;3.47;;;;;;;23.17;100.00;99710.81;6241367;23;20012;-76
2022/07/04 04:00:09;;;;;;;3.85;3.40;;;;;;;23.02;100.00;99713.84;6241934;23;20012;-76
2022/07/04 04:02:38;;;;;;;6.45;3.85;;;;;;;22.87;100.00;99716.00;6242072;23;20431;-77
2022/07/04 04:07:49;;;;;;;4.10;3.80;;;;;;;22.96;100.00;99708.50;6242708;23;20081;-76
2022/07/04 04:10:14;;;;;;;5.55;3.38;;;;;;;23.05;100.00;99717.94;6242428;23;20441;-77
2022/07/04 04:12:40;;;;;;;4.65;3.70;;;;;;;23.14;100.00;99730.09;6190032;23;20044;-77
2022/07/04 04:15:06;;;;;;;4.38;3.97;;;;;;;23.24;100.00;99733.13;6242811;23;20008;-76
2022/07/04 04:17:32;;;;;;;5.80;3.58;;;;;;;23.02;100.00;99738.06;6242299;23;20024;-77
2022/07/04 04:19:57;;;;;;;3.97;3.35;;;;;;;22.97;100.00;99748.66;6241806;23;20012;-76
2022/07/04 04:22:23;;;;;;;5.32;3.67;;;;;;;22.99;100.00;99745.75;6240777;23;20018;-76
2022/07/04 04:24:49;;;;;;;4.53;3.40;;;;;;;22.97;100.00;99748.66;6241485;23;20019;-76
2022/07/04 04:27:14;;;;;;;6.85;3.78;;;;;;;22.94;100.00;99765.25;6242142;23;20405;-77
2022/07/04 04:29:40;;;;;;;4.45;3.85;;;;;;;23.00;100.00;99764.38;6215070;23;20011;-76
2022/07/04 04:32:06;;;;;;;5.75;3.92;;;;;;;23.01;100.00;99771.41;6242023;23;20008;-76
2022/07/04 04:34:33;;;;;;;3.75;3.38;;;;;;;23.05;100.00;99766.41;6241908;23;20016;-76
2022/07/04 04:36:59;;;;;;;4.00;3.67;;;;;;;23.08;100.00;99753.34;6241606;23;20332;-77
2022/07/04 04:39:25;;;;;;;4.40;3.90;;;;;;;23.08;100.00;99756.03;6241436;23;20008;-76
2022/07/04 04:41:51;;;;;;;5.03;4.03;;;;;;;23.03;100.00;99753.16;6241451;23;20016;-77
2022/07/04 04:44:16;;;;;;;4.18;3.80;;;;;;;22.82;100.00;99757.03;6242123;23;20044;-76
2022/07/04 04:46:42;;;;;;;4.97;3.92;;;;;;;22.77;100.00;99758.72;6215018;23;20018;-76
2022/07/04 04:49:08;;;;;;;4.53;3.50;;;;;;;22.79;100.00;99762.03;6242341;23;20307;-76
2022/07/04 04:51:34;;;;;;;4.32;3.92;;;;;;;22.82;100.00;99761.59;6241678;23;20031;-76
2022/07/04 04:53:59;;;;;;;4.57;4.18;;;;;;;22.63;100.00;99762.50;6241385;23;20050;-76
2022/07/04 04:56:25;;;;;;;5.85;4.47;;;;;;;22.56;100.00;99761.72;6242592;23;20054;-76
2022/07/04 04:58:50;;;;;;;4.72;4.30;;;;;;;22.52;100.00;99765.88;6241482;23;20011;-76
2022/07/04 05:01:16;;;;;;;11.23;5.00;;;;;;;22.49;100.00;99760.94;6241290;23;20004;-76
2022/07/04 05:03:42;;;;;;;5.10;4.45;;;;;;;22.63;100.00;99762.50;6241245;23;20008;-75
2022/07/04 05:06:07;;;;;;;6.18;4.45;;;;;;;22.74;100.00;99749.22;6242538;23;20004;-76
2022/07/04 05:08:33;;;;;;;4.93;4.10;;;;;;;22.76;100.00;99751.69;6241198;23;20004;-76
2022/07/04 05:10:59;;;;;;;5.95;4.13;;;;;;;22.73;100.00;99757.53;6241474;23;20008;-76
2022/07/04 05:13:24;;;;;;;7.13;4.00;;;;;;;22.68;100.00;99758.13;6241232;23;20004;-77
2022/07/04 05:15:51;;;;;;;8.40;4.65;;;;;;;22.71;100.00;99757.69;6241577;23;20008;-76
2022/07/04 05:18:16;;;;;;;8.80;4.38;;;;;;;22.81;100.00;99768.84;6242008;23;20008;-76
2022/07/04 05:20:42;;;;;;;5.22;3.60;;;;;;;22.78;100.00;99773.84;6241627;23;20015;-75
2022/07/04 05:23:07;;;;;;;4.85;4.38;;;;;;;22.81;100.00;99782.28;6241867;23;20013;-76
2022/07/04 05:25:33;;;;;;;7.85;4.03;;;;;;;22.80;100.00;99779.81;6240973;23;20004;-76
2022/07/04 05:27:59;;;;;;;6.32;4.25;;;;;;;22.88;100.00;99781.41;6241339;23;20031;-76
2022/07/04 05:30:25;;;;;;;4.88;4.30;;;;;;;22.90;100.00;99785.56;6241174;23;20008;-76
2022/07/04 05:32:51;;;;;;;5.20;4.70;;;;;;;22.88;100.00;99792.19;6240849;23;20016;-76
2022/07/04 05:35:17;;;;;;;6.80;5.45;;;;;;;22.80;100.00;99785.19;6240493;23;20326;-77
2022/07/04 05:37:43;;;;;;;6.30;5.70;;;;;;;22.70;100.00;99779.44;6240549;23;20083;-76
2022/07/04 05:40:11;;;;;;;7.82;4.70;;;;;;;22.85;100.00;99777.31;6240488;23;20015;-76
2022/07/04 05:42:37;;;;;;;8.25;5.10;;;;;;;23.01;100.00;99766.03;6239863;23;20016;-77
2022/07/04 05:45:04;;;;;;;4.72;4.32;;;;;;;23.10;100.00;99761.19;6241118;23;20091;-76
2022/07/04 05:47:29;;;;;;;7.45;4.50;;;;;;;23.27;100.00;99771.19;6214415;23;20329;-77
2022/07/04 05:49:55;;;;;;;4.38;3.97;;;;;;;23.43;100.00;99782.47;6241112;23;20080;-77
2022/07/04 05:52:20;;;;;;;5.30;4.80;;;;;;;23.57;100.00;99770.53;6240449;23;20065;-76
2022/07/04 05:54:46;;;;;;;4.97;3.90;;;;;;;23.72;100.00;99768.34;6240400;23;20126;-77
2022/07/04 05:57:12;;;;;;;6.43;3.70;;;;;;;23.82;100.00;99773.22;6240791;23;20008;-78
2022/07/04 05:59:37;;;;;;;6.93;3.67;;;;;;;23.88;100.00;99773.13;6240579;23;20012;-77
2022/07/04 06:02:03;;;;;;;4.32;3.65;;;;;;;23.97;100.00;99777.22;6241175;23;20012;-76
2022/07/04 06:04:29;;;;;;;4.03;3.38;;;;;;;24.09;100.00;99763.81;6242736;23;20015;-77
2022/07/04 06:06:55;;;;;;;4.63;3.13;;;;;;;24.13;98.73;99783.03;6216046;23;20008;-76
2022/07/04 06:09:20;;;;;;;3.70;3.35;;;;;;;24.18;97.81;99783.19;6243106;23;20008;-75
2022/07/04 06:11:46;;;;;;;5.10;3.78;;;;;;;24.20;97.13;99783.81;6242272;23;20088;-76
2022/07/04 06:14:12;;;;;;;6.45;3.70;;;;;;;24.15;97.20;99779.03;6242762;23;20008;-77
2022/07/04 06:16:37;;;;;;;4.70;3.50;;;;;;;24.09;97.21;99780.78;6215977;23;20000;-77
2022/07/04 06:19:03;;;;;;;3.85;3.20;;;;;;;23.96;97.73;99770.16;6243246;23;20012;-75
2022/07/04 06:21:28;;;;;;;3.97;3.60;;;;;;;23.95;97.88;99763.13;6242648;23;20024;-78
2022/07/04 06:23:54;;;;;;;4.10;3.55;;;;;;;23.93;97.90;99757.13;6242427;23;20016;-76
2022/07/04 06:26:20;;;;;;;6.97;3.22;;;;;;;24.07;98.24;99758.63;6242805;23;20014;-74
2022/07/04 06:28:46;;;;;;;5.43;3.35;;;;;;;24.20;99.67;99756.84;6242395;23;20004;-76
2022/07/04 06:31:12;;;;;;;3.45;3.15;;;;;;;24.33;100.00;99770.16;6243010;23;20062;-77
2022/07/04 06:36:22;;;;;;;5.70;3.75;;;;;;;24.48;98.52;99767.91;6242791;23;20015;-77
2022/07/04 06:38:48;;;;;;;4.47;3.75;;;;;;;24.44;96.48;99761.31;6215512;23;20008;-76
2022/07/04 06:41:13;;;;;;;4.50;3.80;;;;;;;24.47;96.76;99771.66;6242958;23;20012;-76
2022/07/04 06:43:39;;;;;;;6.95;3.47;;;;;;;24.51;96.82;99767.44;6241661;23;20391;-76
2022/07/04 06:46:05;;;;;;;4.40;3.00;;;;;;;24.60;95.79;99782.25;6242417;23;20016;-77
2022/07/04 06:48:30;;;;;;;4.82;3.13;;;;;;;24.63;95.40;99786.38;6215544;23;20005;-76
2022/07/04 06:50:56;;;;;;;7.93;3.47;;;;;;;24.62;95.66;99780.19;6242697;23;20011;-77
2022/07/04 06:53:21;;;;;;;10.75;4.00;;;;;;;24.69;95.55;99775.47;6242449;23;20008;-76
2022/07/04 06:55:48;;;;;;;6.47;3.08;;;;;;;24.81;95.03;99780.91;6242111;23;20038;-77
2022/07/04 06:58:14;;;;;;;4.90;3.05;;;;;;;24.93;93.18;99772.91;6242088;23;20004;-76
2022/07/04 07:00:41;;;;;;;4.85;2.85;;;;;;;24.86;90.25;99773.78;6242016;23;20000;-78
2022/07/04 07:03:07;;;;;;;5.15;3.00;;;;;;;24.85;89.76;99766.75;6242146;23;20084;-77
2022/07/04 07:05:34;;;;;;;2.67;2.47;;;;;;;24.97;88.20;99760.59;6242289;23;20090;-76
2022/07/04 07:07:59;;;;;;;7.32;2.47;;;;;;;25.06;87.84;99764.59;6215799;23;20404;-76
2022/07/04 07:10:26;;;;;;;3.80;2.15;;;;;;;25.20;86.95;99766.03;6215667;23;20016;-77
2022/07/04 07:12:52;;;;;;;5.50;2.30;;;;;;;25.32;87.13;99764.19;6215418;23;20433;-76
2022/07/04 07:15:19;;;;;;;3.95;2.25;;;;;;;25.49;86.89;99758.91;6242136;23;20035;-76
2022/07/04 07:17:45;;;;;;;4.57;2.10;;;;;;;25.63;86.07;99768.44;6242146;23;20336;-75
2022/07/04 07:20:11;;;;;;;6.50;2.20;;;;;;;25.67;79.87;99759.66;6242411;23;20075;-76
2022/07/04 07:22:36;;;;;;;11.30;2.53;;;;;;;25.78;80.80;99749.88;6242033;23;20047;-76
2022/07/04 07:25:02;;;;;;;2.47;2.28;;;;;;;25.91;82.34;99748.81;6243019;23;20016;-76
2022/07/04 07:27:28;;;;;;;2.95;2.15;;;;;;;26.00;80.84;99748.19;6242839;23;20087;-77
2022/07/04 07:29:54;;;;;;;2.35;1.63;;;;;;;26.09;76.97;99748.66;6242121;23;20012;-77
2022/07/04 07:32:19;;;;;;;3.97;2.20;;;;;;;26.17;79.49;99747.44;6242518;23;20040;-78
2022/07/04 07:34:45;;;;;;;3.53;2.10;;;;;;;26.20;78.36;99739.69;6242807;23;20008;-76
2022/07/04 07:37:10;;;;;;;3.40;2.67;;;;;;;26.23;78.04;99750.03;6242553;23;20008;-76
2022/07/04 07:39:36;;;;;;;3.42;2.05;;;;;;;26.28;76.44;99736.63;6242250;23;20016;-75
2022/07/04 07:42:02;;;;;;;4.78;2.00;;;;;;;26.36;77.10;99728.13;6242444;23;20451;-77
2022/07/04 07:44:27;;;;;;;3.92;2.30;;;;;;;26.47;78.20;99729.13;6242453;23;20069;-76
2022/07/04 07:46:53;;;;;;;2.58;1.90;;;;;;;26.57;76.79;99723.13;6242210;23;20015;-76
2022/07/04 07:49:19;;;;;;;7.10;2.05;;;;;;;26.65;76.48;99725.41;6242665;23;20079;-77
2022/07/04 07:51:44;;;;;;;2.63;2.15;;;;;;;26.74;76.50;99719.34;6242137;23;20015;-77
2022/07/04 07:54:10;;;;;;;2.60;2.17;;;;;;;26.86;76.91;99722.00;6242593;23;20119;-75
2022/07/04 07:56:36;;;;;;;3.08;2.10;;;;;;;26.95;76.83;99707.03;6242519;23;20050;-74
2022/07/04 07:59:02;;;;;;;5.25;2.50;;;;;;;27.00;74.88;99700.88;6242430;23;20039;-76
2022/07/04 08:01:27;;;;;;;2.88;2.30;;;;;;;27.00;74.02;99707.09;6241794;23;20122;-76
2022/07/04 08:06:37;;;;;;;2.20;2.00;;;;;;;27.06;72.51;99702.59;6241513;23;20015;-76
2022/07/04 08:09:03;;;;;;;3.70;2.92;;;;;;;27.12;74.67;99699.72;6241472;23;20016;-76
2022/07/04 08:11:29;;;;;;;3.83;2.13;;;;;;;27.11;72.90;99711.63;6241519;23;20008;-76
2022/07/04 08:13:54;;;;;;;3.00;2.00;;;;;;;27.19;73.42;99707.69;6241722;23;20095;-76
2022/07/04 08:16:20;;;;;;;2.47;2.28;;;;;;;27.26;73.38;99706.44;6241970;23;20012;-76
2022/07/04 08:18:45;;;;;;;5.00;2.55;;;;;;;27.36;71.67;99699.53;6241152;23;20328;-77
2022/07/04 08:21:13;;;;;;;5.72;2.67;;;;;;;27.44;71.58;99702.66;6214529;23;20008;-76
2022/07/04 08:23:39;;;;;;;2.38;2.22;;;;;;;27.50;71.39;99695.41;6240925;23;20012;-76
2022/07/04 08:26:05;;;;;;;3.63;2.40;;;;;;;27.54;70.34;99696.59;6241302;23;20035;-78
2022/07/04 08:28:30;;;;;;;4.03;2.20;;;;;;;27.61;69.70;99691.81;6241446;23;20054;-79
2022/07/04 08:30:57;;;;;;;3.25;2.50;;;;;;;27.70;68.85;99698.41;6214725;23;20094;-77
2022/07/04 08:33:23;;;;;;;4.38;2.70;;;;;;;27.76;70.31;99696.59;6214436;23;20012;-76
2022/07/04 08:35:50;;;;;;;4.28;2.65;;;;;;;27.84;68.53;99694.28;6214284;23;20074;-79
2022/07/04 08:38:16;;;;;;;3.22;2.92;;;;;;;27.84;69.66;99698.88;6241328;23;20015;-77
2022/07/04 08:40:42;;;;;;;4.28;2.75;;;;;;;27.87;71.03;99696.47;6241591;23;20016;-77
2022/07/04 08:43:14;;;;;;;4.85;2.50;;;;;;;27.93;70.55;99694.66;6241109;23;20112;-76
2022/07/04 08:45:40;;;;;;;3.10;2.80;;;;;;;27.97;69.81;99699.34;6241646;23;20015;-76
2022/07/04 08:48:08;;;;;;;4.05;2.88;;;;;;;28.06;69.09;99699.69;6241105;23;20004;-76
2022/07/04 08:50:38;;;;;;;4.13;2.80;;;;;;;28.15;68.58;99702.81;6241015;23;20015;-77
2022/07/04 08:53:10;;;;;;;5.63;3.05;;;;;;;28.21;68.58;99701.81;6241200;23;20433;-76
2022/07/04 08:58:26;;;;;;;6.53;3.03;;;;;;;28.24;68.64;99706.72;6241267;23;20015;-76
2022/07/04 09:00:53;;;;;;;3.53;2.95;;;;;;;28.31;69.47;99718.19;6241034;23;20036;-76
2022/07/04 09:03:19;;;;;;;4.43;3.08;;;;;;;28.37;68.07;99717.19;6241167;23;20022;-77
2022/07/04 09:05:46;;;;;;;3.75;2.42;;;;;;;28.43;68.70;99721.59;6240662;23;20020;-77
2022/07/04 09:08:12;;;;;;;5.82;3.00;;;;;;;28.47;67.53;99722.72;6240778;23;20004;-77
2022/07/04 09:10:38;;;;;;;9.07;3.20;;;;;;;28.55;67.83;99722.25;6240944;23;20021;-77
2022/07/04 09:13:54;;;;;;;4.47;3.35;;;;;;;28.63;68.71;99710.94;6212792;23;20401;-76
2022/07/04 09:16:20;;;;;;;3.83;3.00;;;;;;;28.71;66.37;99707.75;6240710;23;20028;-77
2022/07/04 09:18:45;;;;;;;4.40;3.50;;;;;;;28.85;67.09;99714.44;6240291;23;20011;-77
2022/07/04 09:21:11;;;;;;;5.78;3.00;;;;;;;28.97;66.35;99713.47;6240782;23;20033;-77
2022/07/04 09:23:42;;;;;;;4.95;3.17;;;;;;;29.06;65.61;99720.03;6240534;23;20012;-76
2022/07/04 09:26:14;;;;;;;5.15;3.00;;;;;;;29.09;65.37;99722.25;6241375;23;20062;-77
2022/07/04 09:28:50;;;;;;;3.22;2.92;;;;;;;29.14;64.58;99722.28;6240796;23;20012;-77
2022/07/04 09:31:18;;;;;;;6.35;3.00;;;;;;;29.16;65.30;99722.84;6241409;23;20445;-77
2022/07/04 09:33:49;;;;;;;5.22;3.40;;;;;;;29.19;65.24;99719.59;6240816;23;20016;-76
2022/07/04 09:36:16;;;;;;;6.38;3.13;;;;;;;29.21;65.57;99714.75;6240390;23;20038;-77
2022/07/04 09:38:43;;;;;;;4.07;3.10;;;;;;;29.24;65.46;99722.34;6240951;23;20034;-76
2022/07/04 09:41:34;;;;;;;3.22;2.88;;;;;;;29.31;64.22;99722.97;6243064;23;20446;-76
2022/07/04 09:44:05;;;;;;;4.80;3.30;;;;;;;29.34;64.56;99727.88;6212685;23;20453;-76
2022/07/04 09:46:33;;;;;;;4.43;3.08;;;;;;;29.41;63.12;99723.06;6213050;23;20433;-76
2022/07/04 09:49:01;;;;;;;3.92;2.70;;;;;;;29.49;62.90;99725.28;6185407;23;20012;-75
2022/07/04 09:51:39;;;;;;;6.93;3.10;;;;;;;29.52;61.06;99730.19;6211531;23;20031;-77
2022/07/04 09:54:26;;;;;;;5.05;3.08;;;;;;;29.53;62.61;99729.13;6212275;23;20012;-77
2022/07/04 09:56:55;;;;;;;3.40;3.10;;;;;;;29.49;61.93;99725.28;6212539;23;20066;-77
2022/07/04 09:59:21;;;;;;;3.15;2.80;;;;;;;29.48;61.85;99739.13;6212567;23;20011;-77
2022/07/04 10:01:48;;;;;;;3.17;2.95;;;;;;;29.53;62.64;99753.59;6212130;23;20442;-77
2022/07/04 10:04:14;;;;;;;4.78;3.58;;;;;;;29.54;62.99;99749.78;6212391;23;20044;-76
2022/07/04 10:06:44;;;;;;;4.30;3.00;;;;;;;29.54;63.68;99749.78;6211989;23;20001;-77
2022/07/04 10:09:16;;;;;;;5.38;2.95;;;;;;;29.59;63.60;99752.53;6212021;23;20374;-76
2022/07/04 10:11:44;;;;;;;7.70;3.20;;;;;;;29.61;64.27;99744.94;6185682;23;20071;-77
2022/07/04 10:14:11;;;;;;;4.05;3.10;;;;;;;29.64;64.67;99749.84;6212348;23;20430;-74
2022/07/04 10:16:38;;;;;;;4.97;3.55;;;;;;;29.68;64.49;99753.69;6212318;23;20009;-76
2022/07/04 10:19:04;;;;;;;8.40;3.67;;;;;;;29.67;64.62;99752.06;6186071;23;20397;-75
2022/07/04 10:21:31;;;;;;;7.05;3.40;;;;;;;29.74;65.22;99754.56;6211877;23;20430;-76
2022/07/04 10:23:57;;;;;;;5.35;3.42;;;;;;;29.82;64.86;99762.19;6211514;23;20023;-76
2022/07/04 10:26:23;;;;;;;5.28;3.65;;;;;;;29.88;63.79;99757.59;6212414;23;20485;-75
2022/07/04 10:28:52;;;;;;;3.63;3.33;;;;;;;29.89;62.76;99756.53;6212191;23;20071;-76
2022/07/04 10:31:22;;;;;;;4.43;3.60;;;;;;;29.87;62.60;99750.50;6212540;23;20092;-76
2022/07/04 10:33:48;;;;;;;6.20;4.10;;;;;;;29.84;62.44;99753.78;6211950;23;20441;-76
2022/07/04 10:36:29;;;;;;;4.50;4.05;;;;;;;29.84;62.62;99759.22;6212410;23;20473;-76
2022/07/04 10:39:00;;;;;;;6.85;3.60;;;;;;;29.89;62.65;99757.34;6211438;23;20019;-76
2022/07/04 10:41:30;;;;;;;5.45;3.80;;;;;;;29.91;61.75;99754.41;6213871;23;20326;-76
2022/07/04 10:44:13;;;;;;;5.63;3.95;;;;;;;29.99;61.42;99751.97;6241295;23;20012;-75
2022/07/04 10:46:46;;;;;;;6.60;4.00;;;;;;;30.05;60.98;99747.38;6242343;23;20369;-78
2022/07/04 10:49:14;;;;;;;5.78;3.95;;;;;;;30.06;61.15;99740.84;6242057;23;20441;-75
2022/07/04 10:52:07;;;;;;;4.18;3.42;;;;;;;30.03;60.38;99750.38;6241978;23;20433;-76
2022/07/04 10:54:36;;;;;;;6.95;3.60;;;;;;;30.02;60.38;99734.31;6214802;23;20428;-76
2022/07/04 10:57:17;;;;;;;5.18;3.65;;;;;;;30.06;60.61;99728.06;6242315;23;20019;-76
2022/07/04 11:00:03;;;;;;;3.90;3.33;;;;;;;30.08;61.51;99730.53;6241774;23;20571;-78
2022/07/04 11:02:33;;;;;;;3.50;3.20;;;;;;;30.09;60.99;99719.38;6242477;23;20468;-76
2022/07/04 11:05:06;;;;;;;;;;;;;;;29.99;61.01;99718.50;6243735;23;20015;-78
2022/07/04 11:07:35;;;;;;;4.70;3.17;;;;;;;29.98;61.82;99716.88;6243078;23;19917;-77
2022/07/04 11:10:20;;;;;;;8.35;3.67;;;;;;;30.03;62.29;99709.56;6242742;23;20310;-77
2022/07/04 11:16:53;;;;;;;6.85;3.95;;;;;;;30.00;60.44;99720.97;6242770;23;20515;-77
2022/07/04 11:19:19;;;;;;;5.63;4.00;;;;;;;30.00;60.63;99693.75;6243106;23;20487;-77
2022/07/04 11:21:44;;;;;;;7.70;3.67;;;;;;;30.07;61.38;99698.94;6242977;23;20016;-77
2022/07/04 11:24:10;;;;;;;3.55;3.20;;;;;;;30.11;61.74;99689.16;6242430;23;20043;-77
2022/07/04 11:26:36;;;;;;;4.15;3.35;;;;;;;30.17;61.50;99682.66;6240896;23;20320;-76
2022/07/04 11:29:01;;;;;;;6.70;3.20;;;;;;;30.23;61.58;99687.03;6239256;23;20010;-76
2022/07/04 11:31:38;;;;;;;8.75;3.60;;;;;;;30.35;60.04;99684.88;6242529;23;20008;-77
2022/07/04 11:34:04;;;;;;;5.00;3.10;;;;;;;30.39;60.38;99675.09;6243367;23;20008;-76
2022/07/04 11:36:30;;;;;;;5.43;3.65;;;;;;;30.42;59.68;99663.66;6242790;23;20008;-77
2022/07/04 11:38:57;;;;;;;6.10;3.58;;;;;;;30.37;60.42;99666.38;6242900;23;20012;-77
2022/07/04 11:47:12;;;;;;;5.75;3.83;;;;;;;30.72;59.44;99645.75;6243708;23;19982;-77
2022/07/04 11:49:58;;;;;;;5.30;3.63;;;;;;;30.79;59.25;99643.56;6242861;23;20385;-77
2022/07/04 11:52:25;;;;;;;4.80;3.53;;;;;;;30.85;58.40;99642.47;6215633;23;20015;-77
2022/07/04 11:54:52;;;;;;;4.13;3.80;;;;;;;30.83;58.84;99644.66;6241674;23;20012;-76